createdAt,value
2022-08-03T00:02:18.667Z,98755.44
2022-08-03T00:04:46.336Z,98756.03
2022-08-03T00:07:13.768Z,98750.88
2022-08-03T00:09:41.373Z,98756.25
2022-08-03T00:12:09.164Z,98747.38
2022-08-03T00:14:36.896Z,98745.72
2022-08-03T00:17:04.586Z,98746.56
2022-08-03T00:19:32.083Z,98750.88
2022-08-03T00:21:59.831Z,98748.41
2022-08-03T00:24:27.723Z,98746.31
2022-08-03T00:26:55.408Z,98745.72
2022-08-03T00:29:23.164Z,98746.78
2022-08-03T00:31:52.354Z,98752.16
2022-08-03T00:34:21.779Z,98746.78
2022-08-03T00:37:07.988Z,98750.50
2022-08-03T00:39:35.414Z,98747.25
2022-08-03T00:42:05.179Z,98750.19
2022-08-03T00:44:40.823Z,98749.94
2022-08-03T00:47:10.280Z,98746.44
2022-08-03T00:49:42.005Z,98756.38
2022-08-03T00:52:10.926Z,98751.00
2022-08-03T00:54:39.434Z,98746.66
2022-08-03T00:57:07.788Z,98747.72
2022-08-03T00:59:35.465Z,98747.72
2022-08-03T01:02:03.379Z,98751.47
2022-08-03T01:04:31.225Z,98749.22
2022-08-03T01:07:30.711Z,98748.66
2022-08-03T01:10:23.941Z,98747.84
2022-08-03T01:14:01.103Z,98755.09
2022-08-03T01:16:25.819Z,98753.22
2022-08-03T01:19:20.932Z,98755.69
2022-08-03T01:22:03.641Z,98755.69
2022-08-03T01:25:08.511Z,98752.41
2022-08-03T01:28:08.811Z,98756.13
2022-08-03T01:30:43.264Z,98765.28
2022-08-03T01:33:20.199Z,98762.00
2022-08-03T01:35:55.207Z,98763.63
2022-08-03T01:38:27.181Z,98754.50
2022-08-03T01:40:56.687Z,98754.75
2022-08-03T01:44:28.304Z,98748.53
2022-08-03T01:46:18.957Z,98747.16
2022-08-03T01:48:48.974Z,98745.25
2022-08-03T01:51:20.111Z,98753.34
2022-08-03T01:53:51.098Z,98739.88
2022-08-03T01:56:22.360Z,98740.91
2022-08-03T01:58:52.715Z,98744.69
2022-08-03T02:01:23.000Z,98740.34
2022-08-03T02:03:59.769Z,98733.34
2022-08-03T02:07:02.918Z,98738.72
2022-08-03T02:09:21.981Z,98737.91
2022-08-03T02:11:52.060Z,98743.88
2022-08-03T02:14:21.265Z,98747.38
2022-08-03T02:16:50.605Z,98750.06
2022-08-03T02:19:19.544Z,98743.03
2022-08-03T02:21:57.272Z,98746.78
2022-08-03T02:24:30.093Z,98742.47
2022-08-03T02:26:59.271Z,98743.50
2022-08-03T02:29:39.824Z,98743.72
2022-08-03T02:32:17.812Z,98737.31
2022-08-03T02:34:48.914Z,98744.56
2022-08-03T02:37:22.428Z,98743.50
2022-08-03T02:39:53.346Z,98749.94
2022-08-03T02:42:23.490Z,98740.22
2022-08-03T02:44:53.273Z,98741.03
2022-08-03T02:47:22.307Z,98735.91
2022-08-03T02:49:52.821Z,98738.59
2022-08-03T02:52:23.262Z,98733.22
2022-08-03T02:54:55.030Z,98734.84
2022-08-03T02:57:24.860Z,98734.84
2022-08-03T02:59:53.396Z,98738.59
2022-08-03T03:02:22.746Z,98745.03
2022-08-03T03:05:53.565Z,98742.34
2022-08-03T03:07:51.990Z,98749.81
2022-08-03T03:10:23.306Z,98750.63
2022-08-03T03:12:55.877Z,98746.53
2022-08-03T03:15:27.984Z,98749.00
2022-08-03T03:17:57.013Z,98742.81
2022-08-03T03:20:28.922Z,98747.59
2022-08-03T03:23:00.280Z,98755.66
2022-08-03T03:25:32.613Z,98750.28
2022-08-03T03:28:01.452Z,98754.00
2022-08-03T03:30:30.253Z,98764.78
2022-08-03T03:32:59.328Z,98763.97
2022-08-03T03:35:27.727Z,98761.50
2022-08-03T03:37:55.615Z,98763.16
2022-08-03T03:40:23.740Z,98762.34
2022-08-03T03:42:51.676Z,98771.44
2022-08-03T03:45:22.546Z,98770.63
2022-08-03T03:47:50.355Z,98757.19
2022-08-03T03:50:19.341Z,98762.78
2022-08-03T03:52:46.889Z,98765.25
2022-08-03T03:55:18.470Z,98770.63
2022-08-03T03:57:46.621Z,98768.75
2022-08-03T04:00:15.555Z,98777.63
2022-08-03T04:02:43.309Z,98777.63
2022-08-03T04:05:30.029Z,98777.63
2022-08-03T04:08:26.290Z,98776.00
2022-08-03T04:11:18.069Z,98776.81
2022-08-03T04:14:05.208Z,98788.41
2022-08-03T04:16:41.893Z,98778.69
2022-08-03T04:19:21.169Z,98785.13
2022-08-03T04:21:56.932Z,98794.03
2022-08-03T04:24:30.366Z,98789.47
2022-08-03T04:26:59.578Z,98787.81
2022-08-03T04:29:33.024Z,98797.53
2022-08-03T04:32:01.624Z,98791.94
2022-08-03T04:34:31.026Z,98799.16
2022-08-03T04:37:01.601Z,98802.44
2022-08-03T04:39:32.039Z,98802.22
2022-08-03T04:42:24.117Z,98798.72
2022-08-03T04:44:58.959Z,98806.56
2022-08-03T04:47:31.132Z,98802.00
2022-08-03T04:50:01.119Z,98803.63
2022-08-03T04:52:28.707Z,98803.63
2022-08-03T04:54:56.646Z,98792.84
2022-08-03T04:57:24.285Z,98798.81
2022-08-03T05:00:02.534Z,98799.41
2022-08-03T05:02:32.144Z,98797.31
2022-08-03T05:05:00.014Z,98790.31
2022-08-03T05:07:35.465Z,98799.78
2022-08-03T05:10:15.035Z,98801.78
2022-08-03T05:12:48.722Z,98797.56
2022-08-03T05:15:16.533Z,98801.66
2022-08-03T05:17:44.357Z,98800.38
2022-08-03T05:20:12.488Z,98803.66
2022-08-03T05:22:40.317Z,98800.25
2022-08-03T05:25:08.276Z,98800.47
2022-08-03T05:27:36.087Z,98802.03
2022-08-03T05:30:27.337Z,98800.38
2022-08-03T05:32:51.595Z,98809.03
2022-08-03T05:36:01.124Z,98802.13
2022-08-03T05:38:07.874Z,98808.09
2022-08-03T05:40:37.059Z,98807.16
2022-08-03T05:43:04.664Z,98808.44
2022-08-03T05:45:32.430Z,98808.22
2022-08-03T05:48:00.223Z,98813.13
2022-08-03T05:50:27.800Z,98811.84
2022-08-03T05:52:57.705Z,98814.06
2022-08-03T05:55:25.641Z,98814.06
2022-08-03T05:57:53.132Z,98808.47
2022-08-03T06:00:24.309Z,98811.16
2022-08-03T06:02:53.558Z,98809.28
2022-08-03T06:05:20.963Z,98807.19
2022-08-03T06:07:48.413Z,98810.91
2022-08-03T06:10:36.260Z,98811.72
2022-08-03T06:13:03.585Z,98812.56
2022-08-03T06:15:33.313Z,98815.84
2022-08-03T06:18:02.229Z,98815.00
2022-08-03T06:20:30.264Z,98813.16
2022-08-03T06:23:00.349Z,98817.94
2022-08-03T06:25:28.939Z,98821.06
2022-08-03T06:27:56.574Z,98816.28
2022-08-03T06:30:24.694Z,98820.03
2022-08-03T06:32:52.556Z,98822.25
2022-08-03T06:35:20.188Z,98817.47
2022-08-03T06:37:50.225Z,98819.13
2022-08-03T06:40:23.650Z,98819.44
2022-08-03T06:42:52.204Z,98822.94
2022-08-03T06:45:19.746Z,98833.50
2022-08-03T06:47:47.245Z,98826.22
2022-08-03T06:50:16.922Z,98835.97
2022-08-03T06:52:47.234Z,98829.75
2022-08-03T06:55:14.658Z,98833.50
2022-08-03T06:57:42.532Z,98826.47
2022-08-03T07:00:12.495Z,98833.28
2022-08-03T07:02:40.750Z,98831.16
2022-08-03T07:05:09.715Z,98840.06
2022-08-03T07:07:38.021Z,98832.78
2022-08-03T07:10:07.136Z,98833.41
2022-08-03T07:12:35.928Z,98824.72
2022-08-03T07:15:04.939Z,98820.16
2022-08-03T07:17:36.211Z,98830.72
2022-08-03T07:20:07.344Z,98823.22
2022-08-03T07:22:35.564Z,98821.34
2022-08-03T07:25:03.731Z,98827.09
2022-08-03T07:27:31.393Z,98815.72
2022-08-03T07:29:59.377Z,98825.47
2022-08-03T07:32:28.488Z,98820.06
2022-08-03T07:35:00.492Z,98824.97
2022-08-03T07:37:29.740Z,98827.19
2022-08-03T07:39:57.984Z,98815.84
2022-08-03T07:42:26.573Z,98826.59
2022-08-03T07:44:54.288Z,98823.69
2022-08-03T07:47:24.872Z,98818.66
2022-08-03T07:49:52.789Z,98828.13
2022-08-03T07:52:41.004Z,98823.56
2022-08-03T07:55:09.172Z,98821.47
2022-08-03T07:57:37.076Z,98824.72
2022-08-03T08:00:08.930Z,98822.63
2022-08-03T08:02:36.345Z,98824.50
2022-08-03T08:05:05.917Z,98822.03
2022-08-03T08:07:33.883Z,98819.34
2022-08-03T08:10:01.357Z,98818.91
2022-08-03T08:12:29.008Z,98825.41
2022-08-03T08:14:56.965Z,98824.38
2022-08-03T08:17:24.714Z,98824.97
2022-08-03T08:19:53.335Z,98824.47
2022-08-03T08:22:30.082Z,98821.56
2022-08-03T08:24:59.630Z,98829.16
2022-08-03T08:28:29.875Z,98821.91
2022-08-03T08:30:22.108Z,98821.91
2022-08-03T08:32:50.579Z,98826.22
2022-08-03T08:35:18.777Z,98825.19
2022-08-03T08:37:51.000Z,98821.66
2022-08-03T08:40:22.416Z,98835.13
2022-08-03T08:42:59.055Z,98830.56
2022-08-03T08:45:27.597Z,98830.44
2022-08-03T08:48:01.683Z,98827.75
2022-08-03T08:50:31.802Z,98836.41
2022-08-03T08:53:03.219Z,98834.53
2022-08-03T08:55:58.642Z,98830.00
2022-08-03T08:58:22.309Z,98839.22
2022-08-03T09:00:50.789Z,98830.09
2022-08-03T09:03:25.245Z,98834.31
2022-08-03T09:06:02.201Z,98832.69
2022-08-03T09:08:31.480Z,98832.09
2022-08-03T09:11:00.201Z,98831.03
2022-08-03T09:13:29.007Z,98826.81
2022-08-03T09:16:17.449Z,98829.28
2022-08-03T09:18:48.255Z,98831.13
2022-08-03T09:21:31.617Z,98833.81
2022-08-03T09:24:04.770Z,98823.03
2022-08-03T09:26:35.837Z,98820.47
2022-08-03T09:29:08.166Z,98820.00
2022-08-03T09:31:45.709Z,98819.53
2022-08-03T09:34:16.187Z,98824.91
2022-08-03T09:36:48.870Z,98817.88
2022-08-03T09:39:28.638Z,98819.03
2022-08-03T09:42:14.461Z,98817.75
2022-08-03T09:44:52.406Z,98812.13
2022-08-03T09:47:33.742Z,98813.50
2022-08-03T09:50:04.521Z,98815.97
2022-08-03T09:52:52.378Z,98801.94
2022-08-03T09:56:32.970Z,98801.44
2022-08-03T09:58:10.339Z,98810.94
2022-08-03T10:01:01.253Z,98806.13
2022-08-03T10:03:31.007Z,98803.78
2022-08-03T10:06:00.066Z,98805.44
2022-08-03T10:08:27.730Z,98803.28
2022-08-03T10:10:55.346Z,98804.13
2022-08-03T10:13:23.484Z,98803.63
2022-08-03T10:16:21.564Z,98799.91
2022-08-03T10:18:40.296Z,98804.44
2022-08-03T10:21:14.150Z,98801.19
2022-08-03T10:23:42.384Z,98798.75
2022-08-03T10:26:16.352Z,98797.44
2022-08-03T10:28:49.633Z,98791.56
2022-08-03T10:31:20.309Z,98789.44
2022-08-03T10:33:53.214Z,98789.78
2022-08-03T10:36:27.515Z,98784.16
2022-08-03T10:38:57.091Z,98783.09
2022-08-03T10:41:31.481Z,98787.16
2022-08-03T10:44:03.071Z,98795.03
2022-08-03T10:46:30.638Z,98791.59
2022-08-03T10:48:58.793Z,98781.63
2022-08-03T10:51:31.951Z,98785.72
2022-08-03T10:54:01.893Z,98786.56
2022-08-03T10:56:51.329Z,98781.16
2022-08-03T10:59:27.425Z,98785.25
2022-08-03T11:01:59.931Z,98779.34
2022-08-03T11:04:29.558Z,98776.41
2022-08-03T11:07:19.440Z,98777.22
2022-08-03T11:09:56.852Z,98769.47
2022-08-03T11:12:32.911Z,98765.72
2022-08-03T11:15:06.158Z,98766.28
2022-08-03T11:17:46.788Z,98765.25
2022-08-03T11:20:56.408Z,98768.25
2022-08-03T11:24:03.622Z,98765.31
2022-08-03T11:26:34.564Z,98764.84
2022-08-03T11:29:31.814Z,98761.88
2022-08-03T11:31:59.423Z,98763.53
2022-08-03T11:34:27.216Z,98757.28
2022-08-03T11:37:33.352Z,98756.25
2022-08-03T11:40:02.716Z,98758.44
2022-08-03T11:42:35.159Z,98759.28
2022-08-03T11:45:08.926Z,98748.50
2022-08-03T11:47:50.199Z,98748.22
2022-08-03T11:50:21.163Z,98747.19
2022-08-03T11:52:49.701Z,98745.09
2022-08-03T11:55:21.587Z,98743.44
2022-08-03T11:59:16.666Z,98732.16
2022-08-03T12:00:37.509Z,98730.50
2022-08-03T12:03:16.403Z,98731.81
2022-08-03T12:05:52.546Z,98740.13
2022-08-03T12:08:26.568Z,98740.13
2022-08-03T12:10:57.110Z,98732.63
2022-08-03T12:14:30.065Z,98723.50
2022-08-03T12:16:23.994Z,98726.78
2022-08-03T12:18:59.539Z,98728.91
2022-08-03T12:21:28.029Z,98724.88
2022-08-03T12:24:04.704Z,98722.19
2022-08-03T12:26:44.412Z,98730.03
2022-08-03T12:29:26.321Z,98718.41
2022-08-03T12:31:53.905Z,98715.47
2022-08-03T12:34:21.517Z,98709.25
2022-08-03T12:36:56.105Z,98716.03
2022-08-03T12:39:27.489Z,98715.81
2022-08-03T12:41:57.004Z,98709.31
2022-08-03T12:44:32.632Z,98699.91
2022-08-03T12:47:02.233Z,98712.34
2022-08-03T12:49:53.966Z,98704.03
2022-08-03T12:52:23.023Z,98699.44
2022-08-03T12:54:58.256Z,98701.06
2022-08-03T12:57:40.146Z,98709.72
2022-08-03T13:00:21.774Z,98708.56
2022-08-03T13:03:39.547Z,98703.69
2022-08-03T13:05:53.554Z,98706.88
2022-08-03T13:08:24.125Z,98697.16
2022-08-03T13:10:51.884Z,98696.56
2022-08-03T13:13:38.543Z,98697.66
2022-08-03T13:16:06.270Z,98694.38
2022-08-03T13:18:33.693Z,98696.81
2022-08-03T13:21:02.262Z,98697.91
2022-08-03T13:23:48.785Z,98697.66
2022-08-03T13:26:16.542Z,98701.41
2022-08-03T13:28:43.996Z,98695.78
2022-08-03T13:31:11.500Z,98693.38
2022-08-03T13:33:40.433Z,98696.63
2022-08-03T13:36:08.074Z,98697.53
2022-08-03T13:38:35.750Z,98697.59
2022-08-03T13:41:05.041Z,98694.66
2022-08-03T13:43:32.630Z,98690.41
2022-08-03T13:46:00.126Z,98696.94
2022-08-03T13:48:37.291Z,98687.78
2022-08-03T13:51:21.759Z,98685.06
2022-08-03T13:53:52.218Z,98687.53
2022-08-03T13:56:19.775Z,98685.16
2022-08-03T13:58:47.197Z,98685.16
2022-08-03T14:01:14.931Z,98686.78
2022-08-03T14:03:42.402Z,98679.75
2022-08-03T14:06:09.876Z,98686.47
2022-08-03T14:08:37.541Z,98686.16
2022-08-03T14:11:05.109Z,98680.50
2022-08-03T14:13:32.569Z,98680.25
2022-08-03T14:16:00.230Z,98680.25
2022-08-03T14:18:33.880Z,98678.09
2022-08-03T14:21:06.230Z,98672.72
2022-08-03T14:23:35.121Z,98678.44
2022-08-03T14:26:03.537Z,98677.13
2022-08-03T14:28:31.340Z,98677.91
2022-08-03T14:30:59.336Z,98667.97
2022-08-03T14:33:28.425Z,98674.97
2022-08-03T14:35:55.977Z,98670.09
2022-08-03T14:38:25.276Z,98662.00
2022-08-03T14:40:53.194Z,98664.19
2022-08-03T14:43:21.564Z,98659.09
2022-08-03T14:45:53.590Z,98653.72
2022-08-03T14:50:29.667Z,98658.25
2022-08-03T14:51:10.287Z,98656.13
2022-08-03T14:53:38.104Z,98653.44
2022-08-03T14:56:10.131Z,98656.66
2022-08-03T14:58:38.938Z,98652.56
2022-08-03T15:02:06.488Z,98648.53
2022-08-03T15:03:54.954Z,98647.47
2022-08-03T15:06:23.048Z,98647.47
2022-08-03T15:09:22.718Z,98645.03
2022-08-03T15:11:44.805Z,98645.84
2022-08-03T15:14:15.193Z,98645.84
2022-08-03T15:16:42.890Z,98646.66
2022-08-03T15:20:00.466Z,98644.53
2022-08-03T15:21:58.209Z,98646.16
2022-08-03T15:24:29.565Z,98634.53
2022-08-03T15:26:57.158Z,98636.66
2022-08-03T15:30:08.983Z,98642.06
2022-08-03T15:32:12.712Z,98636.66
2022-08-03T15:34:40.936Z,98636.66
2022-08-03T15:37:19.863Z,98635.84
2022-08-03T15:39:59.218Z,98627.75
2022-08-03T15:42:33.260Z,98635.84
2022-08-03T15:45:00.872Z,98628.56
2022-08-03T15:47:28.631Z,98638.31
2022-08-03T15:49:56.156Z,98643.72
2022-08-03T15:52:23.718Z,98636.66
2022-08-03T15:54:51.368Z,98631.25
2022-08-03T15:57:19.130Z,98629.13
2022-08-03T15:59:47.282Z,98628.56
2022-08-03T16:02:15.286Z,98624.25
2022-08-03T16:04:42.702Z,98621.53
2022-08-03T16:07:12.895Z,98625.06
2022-08-03T16:09:43.869Z,98624.25
2022-08-03T16:12:16.046Z,98622.59
2022-08-03T16:14:52.861Z,98616.16
2022-08-03T16:17:22.091Z,98615.06
2022-08-03T16:19:54.771Z,98611.56
2022-08-03T16:22:24.041Z,98615.06
2022-08-03T16:24:53.341Z,98598.06
2022-08-03T16:27:37.367Z,98605.09
2022-08-03T16:30:12.028Z,98596.16
2022-08-03T16:32:39.870Z,98597.81
2022-08-03T16:35:08.178Z,98595.91
2022-08-03T16:37:38.786Z,98595.09
2022-08-03T16:40:09.362Z,98597.81
2022-08-03T16:42:47.209Z,98590.50
2022-08-03T16:45:14.762Z,98596.72
2022-08-03T16:47:42.392Z,98593.22
2022-08-03T16:50:15.755Z,98602.13
2022-08-03T16:52:48.413Z,98594.03
2022-08-03T16:55:43.520Z,98599.69
2022-08-03T16:58:06.837Z,98605.34
2022-08-03T17:00:41.207Z,98603.69
2022-08-03T17:03:12.824Z,98606.41
2022-08-03T17:05:49.962Z,98606.41
2022-08-03T17:08:26.249Z,98611.78
2022-08-03T17:10:55.262Z,98609.09
2022-08-03T17:13:27.657Z,98609.09
2022-08-03T17:16:10.388Z,98611.00
2022-08-03T17:18:47.583Z,98617.19
2022-08-03T17:21:17.372Z,98615.59
2022-08-03T17:23:57.963Z,98619.91
2022-08-03T17:26:30.578Z,98616.38
2022-08-03T17:29:12.713Z,98610.19
2022-08-03T17:31:48.764Z,98616.66
2022-08-03T17:34:19.540Z,98623.91
2022-08-03T17:37:05.552Z,98623.13
2022-08-03T17:39:58.861Z,98627.47
2022-08-03T17:42:31.187Z,98626.91
2022-08-03T17:45:02.558Z,98631.22
2022-08-03T17:47:42.496Z,98630.66
2022-08-03T17:50:25.124Z,98637.69
2022-08-03T17:53:15.532Z,98633.59
2022-08-03T17:56:44.890Z,98640.88
2022-08-03T17:59:51.874Z,98642.78
2022-08-03T18:02:36.452Z,98641.97
2022-08-03T18:05:16.463Z,98641.97
2022-08-03T18:13:31.017Z,98646.78
2022-08-03T18:16:04.485Z,98649.50
2022-08-03T18:18:40.616Z,98647.84
2022-08-03T18:21:17.204Z,98646.22
2022-08-03T18:23:45.977Z,98650.53
2022-08-03T18:26:19.080Z,98655.94
2022-08-03T18:28:50.644Z,98651.63
2022-08-03T18:31:59.555Z,98649.97
2022-08-03T18:34:20.035Z,98659.97
2022-08-03T18:36:56.089Z,98659.97
2022-08-03T18:39:24.935Z,98661.84
2022-08-03T18:41:52.355Z,98663.75
2022-08-03T18:44:53.140Z,98665.03
2022-08-03T18:47:50.786Z,98678.81
2022-08-03T18:50:26.793Z,98667.69
2022-08-03T18:54:04.059Z,98674.41
2022-08-03T18:56:32.381Z,98681.09
2022-08-03T18:59:18.576Z,98682.16
2022-08-03T19:02:05.421Z,98686.50
2022-08-03T19:04:36.583Z,98694.59
2022-08-03T19:07:09.218Z,98685.66
2022-08-03T19:09:52.785Z,98697.31
2022-08-03T19:12:39.862Z,98697.31
2022-08-03T19:15:12.710Z,98698.34
2022-08-03T19:17:52.737Z,98695.66
2022-08-03T19:20:28.204Z,98699.44
2022-08-03T19:22:58.351Z,98695.94
2022-08-03T19:25:33.356Z,98701.56
2022-08-03T19:28:07.242Z,98696.16
2022-08-03T19:30:39.132Z,98704.25
2022-08-03T19:33:14.047Z,98708.00
2022-08-03T19:35:46.685Z,98705.31
2022-08-03T19:38:28.803Z,98709.09
2022-08-03T19:43:57.655Z,98704.66
2022-08-03T19:46:31.017Z,98713.84
2022-08-03T19:49:10.411Z,98708.94
2022-08-03T19:52:01.083Z,98701.06
2022-08-03T19:54:52.989Z,98707.75
2022-08-03T19:57:29.127Z,98705.31
2022-08-03T19:59:57.202Z,98701.22
2022-08-03T20:02:27.195Z,98705.78
2022-08-03T20:04:57.233Z,98703.34
2022-08-03T20:07:26.433Z,98700.63
2022-08-03T20:09:56.331Z,98700.91
2022-08-03T20:12:29.298Z,98700.09
2022-08-03T20:14:58.186Z,98700.31
2022-08-03T20:17:56.950Z,98699.53
2022-08-03T20:20:20.970Z,98692.47
2022-08-03T20:22:57.436Z,98691.91
2022-08-03T20:25:38.549Z,98691.91
2022-08-03T20:28:14.210Z,98691.91
2022-08-03T20:30:47.215Z,98689.44
2022-08-03T20:33:18.973Z,98690.28
2022-08-03T20:35:49.206Z,98688.97
2022-08-03T20:38:18.919Z,98687.06
2022-08-03T20:40:48.282Z,98687.66
2022-08-03T20:43:17.022Z,98693.84
2022-08-03T20:46:00.172Z,98683.91
2022-08-03T20:48:37.278Z,98691.50
2022-08-03T20:51:06.013Z,98697.94
2022-08-03T20:53:59.809Z,98693.38
2022-08-03T20:56:33.957Z,98694.19
2022-08-03T20:59:07.033Z,98703.91
2022-08-03T21:01:44.262Z,98707.44
2022-08-03T21:04:13.591Z,98705.78
2022-08-03T21:06:53.093Z,98709.31
2022-08-03T21:12:17.846Z,98713.88
2022-08-03T21:12:56.881Z,98650.06
2022-08-03T21:12:57.105Z,98643.00
2022-08-03T21:13:02.694Z,98699.59
2022-08-03T21:13:08.101Z,98713.88
2022-08-03T21:15:06.352Z,98709.56
2022-08-03T21:17:41.301Z,98714.97
2022-08-03T21:20:11.105Z,98713.88
2022-08-03T21:22:42.429Z,98710.38
2022-08-03T21:25:13.040Z,98710.38
2022-08-03T21:27:40.697Z,98704.41
2022-08-03T21:30:10.473Z,98708.72
2022-08-03T21:32:40.272Z,98712.50
2022-08-03T21:35:10.566Z,98714.13
2022-08-03T21:37:39.604Z,98719.53
2022-08-03T21:40:10.673Z,98712.50
2022-08-03T21:42:39.898Z,98719.53
2022-08-03T21:45:16.601Z,98719.53
2022-08-03T21:47:47.272Z,98714.13
2022-08-03T21:50:15.777Z,98717.91
2022-08-03T21:52:46.908Z,98727.06
2022-08-03T21:55:20.324Z,98723.28
2022-08-03T21:57:52.814Z,98727.06
2022-08-03T22:00:23.142Z,98720.84
2022-08-03T22:02:55.568Z,98723.81
2022-08-03T22:05:42.723Z,98718.41
2022-08-03T22:08:13.638Z,98723.81
2022-08-03T22:10:44.376Z,98723.81
2022-08-03T22:13:14.384Z,98731.88
2022-08-03T22:15:42.646Z,98721.34
2022-08-03T22:18:11.198Z,98717.84
2022-08-03T22:20:38.768Z,98723.22
2022-08-03T22:23:07.373Z,98722.38
2022-08-03T22:25:39.347Z,98717.84
2022-08-03T22:28:11.981Z,98718.88
2022-08-03T22:30:41.362Z,98722.66
2022-08-03T22:33:12.087Z,98725.91
2022-08-03T22:35:47.870Z,98724.28
2022-08-03T22:38:17.674Z,98721.56
2022-08-03T22:40:48.348Z,98722.66
2022-08-03T22:43:16.809Z,98723.69
2022-08-03T22:46:10.239Z,98721.81
2022-08-03T22:48:41.140Z,98715.59
2022-08-03T22:51:10.143Z,98726.41
2022-08-03T22:53:39.492Z,98726.41
2022-08-03T22:56:07.704Z,98724.78
2022-08-03T22:58:35.847Z,98731.78
2022-08-03T23:01:06.788Z,98724.78
2022-08-03T23:04:00.083Z,98724.78
2022-08-03T23:06:26.990Z,98713.97
2022-08-03T23:08:54.953Z,98720.44
2022-08-03T23:11:24.364Z,98717.72
2022-08-03T23:13:54.104Z,98721.50
2022-08-03T23:16:29.033Z,98717.72
2022-08-03T23:18:59.563Z,98713.41
2022-08-03T23:21:53.365Z,98704.50
2022-08-03T23:24:25.255Z,98708.00
2022-08-03T23:26:58.393Z,98709.91
2022-08-03T23:29:26.437Z,98710.72
2022-08-03T23:31:54.953Z,98705.31
2022-08-03T23:34:43.131Z,98709.06
2022-08-03T23:37:13.905Z,98703.66
2022-08-03T23:39:46.052Z,98698.28
2022-08-03T23:42:16.609Z,98702.84
2022-08-03T23:44:45.641Z,98691.25
2022-08-03T23:47:13.940Z,98695.84
2022-08-03T23:49:41.629Z,98690.44
2022-08-03T23:52:34.549Z,98695.00
2022-08-03T23:55:16.081Z,98699.81
2022-08-03T23:58:01.417Z,98703.09
